Jordan Hwy 8

*Note: All times are displayed in the local standard time of the station location.
**Rain - Equipment is designed to accurately record liquid precipitation; under conditions when precipitation is not in liquid form, the data displayed may not properly reflect rainfall values.

Date Max Temp
(°C)
Min Temp
(°C)
Avg Temp
(°C)
Rain (mm) Avg RH (%)
Mon, Apr 23, 2018 12.0 -0.1 6.5 0.0 64.3
Sun, Apr 22, 2018 16.1 -1.1 7.7 0.0 50.9
Sat, Apr 21, 2018 14.7 -2.5 6.1 0.0 53.5
Fri, Apr 20, 2018 8.5 -0.9 3.2 0.0 60.6
Thu, Apr 19, 2018 4.8 1.1 2.6 0.0 65.3
Wed, Apr 18, 2018 4.7 0.9 2.5 0.0 72.9
Tue, Apr 17, 2018 2.1 -0.5 1.0 0.0 71.9
DateTime Avg Temp (°C) Rain (mm) RH (%)
Tue, Apr 24, 2018 18:00 13.1 0.0 78.8
Tue, Apr 24, 2018 17:00 14.7 0.0 63.0
Tue, Apr 24, 2018 16:00 16.4 0.0 48.3
Tue, Apr 24, 2018 15:00 17.4 0.0 41.5
Tue, Apr 24, 2018 14:00 18.1 0.0 40.5
Tue, Apr 24, 2018 13:00 17.5 0.0 39.8
Tue, Apr 24, 2018 12:00 16.4 0.0 42.5
Tue, Apr 24, 2018 11:00 14.5 0.0 53.5
Tue, Apr 24, 2018 10:00 13.9 0.0 59.5
Tue, Apr 24, 2018 09:00 13.8 0.0 58.8
Tue, Apr 24, 2018 08:00 13.2 0.0 55.8
Tue, Apr 24, 2018 07:00 11.0 0.0 64.8
Tue, Apr 24, 2018 06:00 11.6 0.0 61.5
Tue, Apr 24, 2018 05:00 11.4 0.0 60.0
Tue, Apr 24, 2018 04:00 5.2 0.0 77.8
Tue, Apr 24, 2018 03:00 4.2 0.0 81.3
Tue, Apr 24, 2018 02:00 4.3 0.0 82.3
Tue, Apr 24, 2018 01:00 4.3 0.0 80.5
Tue, Apr 24, 2018 00:00 4.8 0.0 75.0
Mon, Apr 23, 2018 23:00 5.3 0.0 71.0
Mon, Apr 23, 2018 22:00 5.5 0.0 71.0
Mon, Apr 23, 2018 21:00 5.9 0.0 70.0
Mon, Apr 23, 2018 20:00 7.5 0.0 62.8
Mon, Apr 23, 2018 19:00 8.8 0.0 55.5
Mon, Apr 23, 2018 18:00 10.4 0.0 50.0
Mon, Apr 23, 2018 17:00 10.9 0.0 51.0
Mon, Apr 23, 2018 16:00 11.4 0.0 53.0
Mon, Apr 23, 2018 15:00 11.7 0.0 54.5
Mon, Apr 23, 2018 14:00 10.7 0.0 55.5
Mon, Apr 23, 2018 13:00 10.7 0.0 55.3
Mon, Apr 23, 2018 12:00 11.0 0.0 51.5
Mon, Apr 23, 2018 11:00 10.4 0.0 56.3
Mon, Apr 23, 2018 10:00 10.1 0.0 53.3
Mon, Apr 23, 2018 09:00 6.6 0.0 63.8
Mon, Apr 23, 2018 08:00 3.2 0.0 68.8
Mon, Apr 23, 2018 07:00 0.2 0.0 78.5
Mon, Apr 23, 2018 06:00 0.7 0.0 76.5
Mon, Apr 23, 2018 05:00 0.8 0.0 78.5
Mon, Apr 23, 2018 04:00 1.3 0.0 75.0
Mon, Apr 23, 2018 03:00 1.8 0.0 75.5
Mon, Apr 23, 2018 02:00 2.1 0.0 72.5
Mon, Apr 23, 2018 01:00 3.4 0.0 69.3
Mon, Apr 23, 2018 00:00 4.7 0.0 61.3
Sun, Apr 22, 2018 23:00 5.4 0.0 62.0
Sun, Apr 22, 2018 22:00 6.4 0.0 61.0
Sun, Apr 22, 2018 21:00 8.5 0.0 53.8
Sun, Apr 22, 2018 20:00 13.8 0.0 27.8
Sun, Apr 22, 2018 19:00 15.6 0.0 22.0


asterix Register now to access more data! asterix